sensor_id;sensor_type;location;lat;lon;timestamp;pressure;altitude;pressure_sealevel;temperature
62932;BMP280;49037;41.898;25.004;2022-11-15T00:01:35;97071.75;;;7.22
62932;BMP280;49037;41.898;25.004;2022-11-15T00:04:03;97080.41;;;7.34
62932;BMP280;49037;41.898;25.004;2022-11-15T00:06:28;97068.16;;;7.25
62932;BMP280;49037;41.898;25.004;2022-11-15T00:08:54;97077.53;;;7.37
62932;BMP280;49037;41.898;25.004;2022-11-15T00:11:19;97064.47;;;7.34
62932;BMP280;49037;41.898;25.004;2022-11-15T00:13:45;97065.22;;;7.34
62932;BMP280;49037;41.898;25.004;2022-11-15T00:16:10;97074.09;;;7.42
62932;BMP280;49037;41.898;25.004;2022-11-15T00:18:37;97070.97;;;7.44
62932;BMP280;49037;41.898;25.004;2022-11-15T00:21:11;97076.75;;;7.48
62932;BMP280;49037;41.898;25.004;2022-11-15T00:23:37;97074.31;;;7.50
62932;BMP280;49037;41.898;25.004;2022-11-15T00:26:02;97066.59;;;7.52
62932;BMP280;49037;41.898;25.004;2022-11-15T00:28:28;97061.50;;;7.54
62932;BMP280;49037;41.898;25.004;2022-11-15T00:30:53;97057.34;;;7.64
62932;BMP280;49037;41.898;25.004;2022-11-15T00:33:19;97062.84;;;7.71
62932;BMP280;49037;41.898;25.004;2022-11-15T00:35:44;97051.50;;;7.70
62932;BMP280;49037;41.898;25.004;2022-11-15T00:38:10;97049.50;;;7.82
62932;BMP280;49037;41.898;25.004;2022-11-15T00:40:35;97050.28;;;7.77
62932;BMP280;49037;41.898;25.004;2022-11-15T00:43:01;97056.50;;;7.85
62932;BMP280;49037;41.898;25.004;2022-11-15T00:45:26;97047.53;;;7.88
62932;BMP280;49037;41.898;25.004;2022-11-15T00:47:52;97040.81;;;7.81
62932;BMP280;49037;41.898;25.004;2022-11-15T00:50:17;97045.06;;;7.95
62932;BMP280;49037;41.898;25.004;2022-11-15T00:52:43;97044.59;;;7.97
62932;BMP280;49037;41.898;25.004;2022-11-15T00:55:14;97043.63;;;8.00
62932;BMP280;49037;41.898;25.004;2022-11-15T00:57:40;97040.72;;;7.98
62932;BMP280;49037;41.898;25.004;2022-11-15T01:00:06;97040.00;;;7.97
62932;BMP280;49037;41.898;25.004;2022-11-15T01:02:32;97031.59;;;7.88
62932;BMP280;49037;41.898;25.004;2022-11-15T01:04:57;97039.75;;;7.95
62932;BMP280;49037;41.898;25.004;2022-11-15T01:07:23;97034.94;;;7.94
62932;BMP280;49037;41.898;25.004;2022-11-15T01:09:48;97042.59;;;8.03
62932;BMP280;49037;41.898;25.004;2022-11-15T01:12:14;97027.91;;;7.96
62932;BMP280;49037;41.898;25.004;2022-11-15T01:14:39;97019.94;;;7.96
62932;BMP280;49037;41.898;25.004;2022-11-15T01:17:05;97025.19;;;8.02
62932;BMP280;49037;41.898;25.004;2022-11-15T01:19:30;97023.56;;;7.99
62932;BMP280;49037;41.898;25.004;2022-11-15T01:21:56;97022.03;;;8.03
62932;BMP280;49037;41.898;25.004;2022-11-15T01:24:21;97027.34;;;8.03
62932;BMP280;49037;41.898;25.004;2022-11-15T01:26:46;97020.13;;;8.04
62932;BMP280;49037;41.898;25.004;2022-11-15T01:29:12;97020.09;;;8.09
62932;BMP280;49037;41.898;25.004;2022-11-15T01:31:37;97019.59;;;8.11
62932;BMP280;49037;41.898;25.004;2022-11-15T01:34:03;97025.34;;;8.14
62932;BMP280;49037;41.898;25.004;2022-11-15T01:36:28;97012.63;;;8.02
62932;BMP280;49037;41.898;25.004;2022-11-15T01:38:55;97010.97;;;7.99
62932;BMP280;49037;41.898;25.004;2022-11-15T01:41:24;97006.16;;;7.98
62932;BMP280;49037;41.898;25.004;2022-11-15T01:43:53;97027.59;;;8.05
62932;BMP280;49037;41.898;25.004;2022-11-15T01:46:26;97022.75;;;8.09
62932;BMP280;49037;41.898;25.004;2022-11-15T01:48:53;97025.66;;;8.11
62932;BMP280;49037;41.898;25.004;2022-11-15T01:51:21;97019.53;;;8.16
62932;BMP280;49037;41.898;25.004;2022-11-15T01:53:52;97009.38;;;8.14
62932;BMP280;49037;41.898;25.004;2022-11-15T01:56:22;97009.13;;;8.18
62932;BMP280;49037;41.898;25.004;2022-11-15T01:58:48;97012.47;;;8.24
62932;BMP280;49037;41.898;25.004;2022-11-15T02:01:14;97002.59;;;8.19
62932;BMP280;49037;41.898;25.004;2022-11-15T02:03:45;97014.63;;;8.25
62932;BMP280;49037;41.898;25.004;2022-11-15T02:06:11;97012.41;;;8.29
62932;BMP280;49037;41.898;25.004;2022-11-15T02:08:37;97007.13;;;8.24
62932;BMP280;49037;41.898;25.004;2022-11-15T02:11:07;96997.22;;;8.24
62932;BMP280;49037;41.898;25.004;2022-11-15T02:13:32;97009.25;;;8.31
62932;BMP280;49037;41.898;25.004;2022-11-15T02:16:08;96999.88;;;8.24
62932;BMP280;49037;41.898;25.004;2022-11-15T02:18:41;96998.66;;;8.25
62932;BMP280;49037;41.898;25.004;2022-11-15T02:24:11;97003.41;;;8.32
62932;BMP280;49037;41.898;25.004;2022-11-15T02:32:07;96993.38;;;8.49
62932;BMP280;49037;41.898;25.004;2022-11-15T02:39:51;96995.38;;;8.67
62932;BMP280;49037;41.898;25.004;2022-11-15T02:42:29;96998.69;;;8.73
62932;BMP280;49037;41.898;25.004;2022-11-15T02:45:23;96995.22;;;8.60
62932;BMP280;49037;41.898;25.004;2022-11-15T02:47:52;96984.56;;;8.60
62932;BMP280;49037;41.898;25.004;2022-11-15T02:50:20;96997.59;;;8.63
62932;BMP280;49037;41.898;25.004;2022-11-15T02:52:48;96986.00;;;8.61
62932;BMP280;49037;41.898;25.004;2022-11-15T02:55:30;96997.28;;;8.66
62932;BMP280;49037;41.898;25.004;2022-11-15T03:07:01;96986.94;;;8.63
62932;BMP280;49037;41.898;25.004;2022-11-15T03:09:33;96997.78;;;8.70
62932;BMP280;49037;41.898;25.004;2022-11-15T03:12:27;96999.84;;;8.77
62932;BMP280;49037;41.898;25.004;2022-11-15T03:14:57;97001.47;;;8.86
62932;BMP280;49037;41.898;25.004;2022-11-15T03:17:28;96984.47;;;8.89
62932;BMP280;49037;41.898;25.004;2022-11-15T03:20:05;96991.69;;;8.94
62932;BMP280;49037;41.898;25.004;2022-11-15T03:22:35;96975.78;;;8.88
62932;BMP280;49037;41.898;25.004;2022-11-15T03:25:05;96976.91;;;8.93
62932;BMP280;49037;41.898;25.004;2022-11-15T03:27:37;96984.63;;;8.96
62932;BMP280;49037;41.898;25.004;2022-11-15T03:30:07;96979.38;;;8.91
62932;BMP280;49037;41.898;25.004;2022-11-15T03:32:49;96967.63;;;8.81
62932;BMP280;49037;41.898;25.004;2022-11-15T03:35:21;96972.94;;;8.81
62932;BMP280;49037;41.898;25.004;2022-11-15T03:40:39;96978.97;;;8.81
62932;BMP280;49037;41.898;25.004;2022-11-15T03:43:24;96977.84;;;8.77
62932;BMP280;49037;41.898;25.004;2022-11-15T03:46:00;96973.56;;;8.68
62932;BMP280;49037;41.898;25.004;2022-11-15T03:48:30;96974.78;;;8.67
62932;BMP280;49037;41.898;25.004;2022-11-15T03:50:59;96959.56;;;8.68
62932;BMP280;49037;41.898;25.004;2022-11-15T03:53:25;96955.94;;;8.65
62932;BMP280;49037;41.898;25.004;2022-11-15T03:55:50;96963.28;;;8.78
62932;BMP280;49037;41.898;25.004;2022-11-15T03:58:16;96962.81;;;8.79
62932;BMP280;49037;41.898;25.004;2022-11-15T04:00:41;96958.41;;;8.82
62932;BMP280;49037;41.898;25.004;2022-11-15T04:03:07;96949.69;;;8.81
62932;BMP280;49037;41.898;25.004;2022-11-15T04:05:33;96940.13;;;8.73
62932;BMP280;49037;41.898;25.004;2022-11-15T04:07:59;96946.44;;;8.70
62932;BMP280;49037;41.898;25.004;2022-11-15T04:10:24;96949.03;;;8.75
62932;BMP280;49037;41.898;25.004;2022-11-15T04:12:50;96934.16;;;8.62
62932;BMP280;49037;41.898;25.004;2022-11-15T04:15:21;96947.44;;;8.67
62932;BMP280;49037;41.898;25.004;2022-11-15T04:17:48;96947.22;;;8.65
62932;BMP280;49037;41.898;25.004;2022-11-15T04:23:01;96948.00;;;8.60
62932;BMP280;49037;41.898;25.004;2022-11-15T04:25:48;96939.34;;;8.54
62932;BMP280;49037;41.898;25.004;2022-11-15T04:28:14;96940.50;;;8.40
62932;BMP280;49037;41.898;25.004;2022-11-15T04:30:40;96936.91;;;8.32
62932;BMP280;49037;41.898;25.004;2022-11-15T04:33:05;96924.25;;;8.14
62932;BMP280;49037;41.898;25.004;2022-11-15T04:35:31;96933.69;;;8.15
62932;BMP280;49037;41.898;25.004;2022-11-15T04:37:56;96935.22;;;8.11
62932;BMP280;49037;41.898;25.004;2022-11-15T04:40:22;96935.28;;;8.00
62932;BMP280;49037;41.898;25.004;2022-11-15T04:42:47;96947.06;;;8.05
62932;BMP280;49037;41.898;25.004;2022-11-15T04:45:13;96935.00;;;8.04
62932;BMP280;49037;41.898;25.004;2022-11-15T04:47:38;96940.88;;;7.97
62932;BMP280;49037;41.898;25.004;2022-11-15T04:50:04;96920.66;;;7.83
62932;BMP280;49037;41.898;25.004;2022-11-15T04:52:29;96932.75;;;7.84
62932;BMP280;49037;41.898;25.004;2022-11-15T04:54:55;96938.78;;;7.84
62932;BMP280;49037;41.898;25.004;2022-11-15T04:57:20;96941.22;;;7.82
62932;BMP280;49037;41.898;25.004;2022-11-15T04:59:46;96927.75;;;7.75
62932;BMP280;49037;41.898;25.004;2022-11-15T05:02:11;96940.97;;;7.86
62932;BMP280;49037;41.898;25.004;2022-11-15T05:04:37;96942.63;;;7.89
62932;BMP280;49037;41.898;25.004;2022-11-15T05:07:02;96941.94;;;7.83
62932;BMP280;49037;41.898;25.004;2022-11-15T05:09:30;96951.44;;;7.78
62932;BMP280;49037;41.898;25.004;2022-11-15T05:11:56;96937.50;;;7.62
62932;BMP280;49037;41.898;25.004;2022-11-15T05:14:21;96927.19;;;7.58
62932;BMP280;49037;41.898;25.004;2022-11-15T05:16:47;96944.00;;;7.66
62932;BMP280;49037;41.898;25.004;2022-11-15T05:19:12;96935.53;;;7.67
62932;BMP280;49037;41.898;25.004;2022-11-15T05:21:38;96942.50;;;7.76
62932;BMP280;49037;41.898;25.004;2022-11-15T05:24:03;96938.06;;;7.84
62932;BMP280;49037;41.898;25.004;2022-11-15T05:26:29;96942.16;;;7.90
62932;BMP280;49037;41.898;25.004;2022-11-15T05:28:56;96940.66;;;7.95
62932;BMP280;49037;41.898;25.004;2022-11-15T05:31:22;96943.28;;;8.00
62932;BMP280;49037;41.898;25.004;2022-11-15T05:33:49;96941.31;;;8.01
62932;BMP280;49037;41.898;25.004;2022-11-15T05:36:38;96947.56;;;8.09
62932;BMP280;49037;41.898;25.004;2022-11-15T05:39:06;96945.84;;;8.11
62932;BMP280;49037;41.898;25.004;2022-11-15T05:41:35;96941.75;;;8.05
62932;BMP280;49037;41.898;25.004;2022-11-15T05:44:04;96937.88;;;8.06
62932;BMP280;49037;41.898;25.004;2022-11-15T05:46:32;96939.09;;;8.05
62932;BMP280;49037;41.898;25.004;2022-11-15T05:48:58;96944.03;;;7.95
62932;BMP280;49037;41.898;25.004;2022-11-15T05:51:26;96941.88;;;7.94
62932;BMP280;49037;41.898;25.004;2022-11-15T05:53:53;96936.13;;;7.90
62932;BMP280;49037;41.898;25.004;2022-11-15T05:56:21;96934.16;;;7.90
62932;BMP280;49037;41.898;25.004;2022-11-15T05:58:47;96942.31;;;7.98
62932;BMP280;49037;41.898;25.004;2022-11-15T06:01:12;96947.81;;;8.05
62932;BMP280;49037;41.898;25.004;2022-11-15T06:03:38;96954.59;;;8.06
62932;BMP280;49037;41.898;25.004;2022-11-15T06:06:03;96962.06;;;8.08
62932;BMP280;49037;41.898;25.004;2022-11-15T06:08:29;96950.53;;;8.00
62932;BMP280;49037;41.898;25.004;2022-11-15T06:10:54;96957.06;;;7.93
62932;BMP280;49037;41.898;25.004;2022-11-15T06:13:19;96957.81;;;7.94
62932;BMP280;49037;41.898;25.004;2022-11-15T06:15:45;96956.91;;;7.91
62932;BMP280;49037;41.898;25.004;2022-11-15T06:18:11;96958.28;;;7.98
62932;BMP280;49037;41.898;25.004;2022-11-15T06:20:36;96953.50;;;7.91
62932;BMP280;49037;41.898;25.004;2022-11-15T06:23:03;96959.47;;;7.97
62932;BMP280;49037;41.898;25.004;2022-11-15T06:25:29;96963.84;;;8.00
62932;BMP280;49037;41.898;25.004;2022-11-15T06:27:56;96971.81;;;7.94
62932;BMP280;49037;41.898;25.004;2022-11-15T06:30:23;96966.78;;;7.91
62932;BMP280;49037;41.898;25.004;2022-11-15T06:32:49;96966.56;;;7.89
62932;BMP280;49037;41.898;25.004;2022-11-15T06:35:15;96966.56;;;7.89
62932;BMP280;49037;41.898;25.004;2022-11-15T06:37:41;96965.88;;;7.83
62932;BMP280;49037;41.898;25.004;2022-11-15T06:40:08;96959.34;;;7.84
62932;BMP280;49037;41.898;25.004;2022-11-15T06:42:33;96956.16;;;7.91
62932;BMP280;49037;41.898;25.004;2022-11-15T06:44:59;96955.94;;;7.89
62932;BMP280;49037;41.898;25.004;2022-11-15T06:47:24;96963.34;;;8.01
62932;BMP280;49037;41.898;25.004;2022-11-15T06:49:50;96960.84;;;8.09
62932;BMP280;49037;41.898;25.004;2022-11-15T06:52:15;96960.56;;;8.12
62932;BMP280;49037;41.898;25.004;2022-11-15T06:54:43;96954.75;;;8.14
62932;BMP280;49037;41.898;25.004;2022-11-15T06:57:09;96958.41;;;8.11
62932;BMP280;49037;41.898;25.004;2022-11-15T06:59:34;96949.94;;;8.12
62932;BMP280;49037;41.898;25.004;2022-11-15T07:02:00;96956.50;;;8.11
62932;BMP280;49037;41.898;25.004;2022-11-15T07:04:25;96951.34;;;8.13
62932;BMP280;49037;41.898;25.004;2022-11-15T07:06:51;96948.97;;;8.10
62932;BMP280;49037;41.898;25.004;2022-11-15T07:09:16;96943.56;;;8.20
62932;BMP280;49037;41.898;25.004;2022-11-15T07:11:41;96951.97;;;8.24
62932;BMP280;49037;41.898;25.004;2022-11-15T07:14:07;96949.06;;;8.28
62932;BMP280;49037;41.898;25.004;2022-11-15T07:16:32;96956.56;;;8.29
62932;BMP280;49037;41.898;25.004;2022-11-15T07:18:58;96951.16;;;8.35
62932;BMP280;49037;41.898;25.004;2022-11-15T07:21:23;96958.94;;;8.33
62932;BMP280;49037;41.898;25.004;2022-11-15T07:23:49;96950.50;;;8.29
62932;BMP280;49037;41.898;25.004;2022-11-15T07:26:14;96943.28;;;8.24
62932;BMP280;49037;41.898;25.004;2022-11-15T07:28:40;96939.25;;;8.17
62932;BMP280;49037;41.898;25.004;2022-11-15T07:31:07;96951.22;;;8.29
62932;BMP280;49037;41.898;25.004;2022-11-15T07:33:33;96944.19;;;8.32
62932;BMP280;49037;41.898;25.004;2022-11-15T07:36:04;96942.47;;;8.34
62932;BMP280;49037;41.898;25.004;2022-11-15T07:38:30;96953.28;;;8.42
62932;BMP280;49037;41.898;25.004;2022-11-15T07:40:59;96953.22;;;8.47
62932;BMP280;49037;41.898;25.004;2022-11-15T07:43:26;96952.22;;;8.50
62932;BMP280;49037;41.898;25.004;2022-11-15T07:45:55;96952.22;;;8.50
62932;BMP280;49037;41.898;25.004;2022-11-15T07:48:20;96948.34;;;8.51
62932;BMP280;49037;41.898;25.004;2022-11-15T07:50:46;96954.09;;;8.55
62932;BMP280;49037;41.898;25.004;2022-11-15T07:53:11;96958.38;;;8.63
62932;BMP280;49037;41.898;25.004;2022-11-15T07:55:40;96943.09;;;8.64
62932;BMP280;49037;41.898;25.004;2022-11-15T07:58:08;96947.19;;;8.70
62932;BMP280;49037;41.898;25.004;2022-11-15T08:00:35;96948.31;;;8.75
62932;BMP280;49037;41.898;25.004;2022-11-15T08:03:04;96945.31;;;8.84
62932;BMP280;49037;41.898;25.004;2022-11-15T08:05:30;96947.63;;;8.93
62932;BMP280;49037;41.898;25.004;2022-11-15T08:07:56;96936.59;;;9.02
62932;BMP280;49037;41.898;25.004;2022-11-15T08:10:22;96934.63;;;9.08
62932;BMP280;49037;41.898;25.004;2022-11-15T08:12:47;96935.88;;;9.19
62932;BMP280;49037;41.898;25.004;2022-11-15T08:15:13;96933.06;;;9.30
62932;BMP280;49037;41.898;25.004;2022-11-15T08:17:38;96933.72;;;9.36
62932;BMP280;49037;41.898;25.004;2022-11-15T08:20:04;96929.78;;;9.43
62932;BMP280;49037;41.898;25.004;2022-11-15T08:22:30;96940.22;;;9.54
62932;BMP280;49037;41.898;25.004;2022-11-15T08:24:55;96933.59;;;9.60
62932;BMP280;49037;41.898;25.004;2022-11-15T08:27:21;96940.47;;;9.87
62932;BMP280;49037;41.898;25.004;2022-11-15T08:29:48;96938.22;;;10.04
62932;BMP280;49037;41.898;25.004;2022-11-15T08:32:13;96933.31;;;10.07
62932;BMP280;49037;41.898;25.004;2022-11-15T08:34:39;96927.69;;;10.24
62932;BMP280;49037;41.898;25.004;2022-11-15T08:37:04;96930.03;;;10.14
62932;BMP280;49037;41.898;25.004;2022-11-15T08:39:30;96933.16;;;10.18
62932;BMP280;49037;41.898;25.004;2022-11-15T08:41:55;96927.25;;;10.46
62932;BMP280;49037;41.898;25.004;2022-11-15T08:44:21;96916.06;;;10.21
62932;BMP280;49037;41.898;25.004;2022-11-15T08:46:46;96928.19;;;10.35
62932;BMP280;49037;41.898;25.004;2022-11-15T08:49:12;96911.16;;;10.38
62932;BMP280;49037;41.898;25.004;2022-11-15T08:51:37;96922.25;;;10.42
62932;BMP280;49037;41.898;25.004;2022-11-15T08:54:03;96908.91;;;10.42
62932;BMP280;49037;41.898;25.004;2022-11-15T08:56:28;96915.16;;;10.57
62932;BMP280;49037;41.898;25.004;2022-11-15T08:58:53;96901.72;;;10.50
62932;BMP280;49037;41.898;25.004;2022-11-15T09:01:20;96910.94;;;10.62
62932;BMP280;49037;41.898;25.004;2022-11-15T09:03:46;96903.22;;;10.71
62932;BMP280;49037;41.898;25.004;2022-11-15T09:06:11;96900.47;;;10.97
62932;BMP280;49037;41.898;25.004;2022-11-15T09:09:46;96891.78;;;11.17
62932;BMP280;49037;41.898;25.004;2022-11-15T09:15:34;96883.97;;;11.39
62932;BMP280;49037;41.898;25.004;2022-11-15T09:18:00;96876.91;;;11.29
62932;BMP280;49037;41.898;25.004;2022-11-15T09:20:25;96877.56;;;11.62
62932;BMP280;49037;41.898;25.004;2022-11-15T09:22:50;96872.38;;;11.64
62932;BMP280;49037;41.898;25.004;2022-11-15T09:25:16;96864.88;;;11.63
62932;BMP280;49037;41.898;25.004;2022-11-15T09:27:41;96861.81;;;11.79
62932;BMP280;49037;41.898;25.004;2022-11-15T09:30:07;96867.16;;;12.07
62932;BMP280;49037;41.898;25.004;2022-11-15T09:32:33;96863.19;;;12.00
62932;BMP280;49037;41.898;25.004;2022-11-15T09:34:58;96855.72;;;12.06
62932;BMP280;49037;41.898;25.004;2022-11-15T09:37:24;96854.25;;;12.33
62932;BMP280;49037;41.898;25.004;2022-11-15T09:39:49;96841.94;;;12.30
62932;BMP280;49037;41.898;25.004;2022-11-15T09:42:30;96835.66;;;12.28
62932;BMP280;49037;41.898;25.004;2022-11-15T09:45:18;96837.91;;;12.59
62932;BMP280;49037;41.898;25.004;2022-11-15T09:47:58;96831.53;;;12.69
62932;BMP280;49037;41.898;25.004;2022-11-15T09:52:57;96822.97;;;12.85
62932;BMP280;49037;41.898;25.004;2022-11-15T09:56:11;96829.94;;;12.88
62932;BMP280;49037;41.898;25.004;2022-11-15T09:58:40;96822.44;;;12.87
62932;BMP280;49037;41.898;25.004;2022-11-15T10:04:36;96818.88;;;13.07
62932;BMP280;49037;41.898;25.004;2022-11-15T10:07:23;96814.25;;;13.15
62932;BMP280;49037;41.898;25.004;2022-11-15T10:10:46;96813.66;;;12.72
62932;BMP280;49037;41.898;25.004;2022-11-15T10:15:04;96797.06;;;12.88
62932;BMP280;49037;41.898;25.004;2022-11-15T10:25:29;96785.97;;;12.77
62932;BMP280;49037;41.898;25.004;2022-11-15T10:29:27;96784.19;;;13.16
62932;BMP280;49037;41.898;25.004;2022-11-15T10:31:53;96785.78;;;12.97
62932;BMP280;49037;41.898;25.004;2022-11-15T10:34:23;96782.22;;;12.72
62932;BMP280;49037;41.898;25.004;2022-11-15T10:36:59;96789.91;;;12.76
62932;BMP280;49037;41.898;25.004;2022-11-15T10:40:04;96781.09;;;12.53
62932;BMP280;49037;41.898;25.004;2022-11-15T10:42:30;96780.19;;;12.58
62932;BMP280;49037;41.898;25.004;2022-11-15T10:44:55;96790.41;;;12.67
62932;BMP280;49037;41.898;25.004;2022-11-15T10:50:28;96778.97;;;12.59
62932;BMP280;49037;41.898;25.004;2022-11-15T10:52:55;96771.84;;;12.69
62932;BMP280;49037;41.898;25.004;2022-11-15T10:55:30;96773.06;;;12.60
62932;BMP280;49037;41.898;25.004;2022-11-15T10:58:27;96769.63;;;12.30
62932;BMP280;49037;41.898;25.004;2022-11-15T11:00:55;96764.72;;;12.14
62932;BMP280;49037;41.898;25.004;2022-11-15T11:03:37;96757.44;;;12.14
62932;BMP280;49037;41.898;25.004;2022-11-15T11:08:33;96756.50;;;12.12
62932;BMP280;49037;41.898;25.004;2022-11-15T11:11:00;96756.06;;;11.86
62932;BMP280;49037;41.898;25.004;2022-11-15T11:13:36;96759.97;;;11.85
62932;BMP280;49037;41.898;25.004;2022-11-15T11:21:41;96736.66;;;12.00
62932;BMP280;49037;41.898;25.004;2022-11-15T11:24:23;96741.69;;;12.11
62932;BMP280;49037;41.898;25.004;2022-11-15T11:32:39;96732.06;;;12.15
62932;BMP280;49037;41.898;25.004;2022-11-15T11:35:11;96730.84;;;12.24
62932;BMP280;49037;41.898;25.004;2022-11-15T11:37:52;96721.75;;;12.19
62932;BMP280;49037;41.898;25.004;2022-11-15T11:46:30;96717.00;;;11.97
62932;BMP280;49037;41.898;25.004;2022-11-15T11:49:20;96719.19;;;11.99
62932;BMP280;49037;41.898;25.004;2022-11-15T11:51:51;96700.09;;;12.02
62932;BMP280;49037;41.898;25.004;2022-11-15T11:57:07;96712.50;;;12.35
62932;BMP280;49037;41.898;25.004;2022-11-15T11:59:48;96704.81;;;12.39
62932;BMP280;49037;41.898;25.004;2022-11-15T12:02:28;96694.81;;;12.32
62932;BMP280;49037;41.898;25.004;2022-11-15T12:05:03;96687.09;;;12.14
62932;BMP280;49037;41.898;25.004;2022-11-15T12:07:33;96690.34;;;12.27
62932;BMP280;49037;41.898;25.004;2022-11-15T12:10:22;96688.91;;;12.26
62932;BMP280;49037;41.898;25.004;2022-11-15T12:13:11;96686.19;;;11.96
62932;BMP280;49037;41.898;25.004;2022-11-15T12:15:56;96673.81;;;11.86
62932;BMP280;49037;41.898;25.004;2022-11-15T12:18:23;96663.09;;;11.79
62932;BMP280;49037;41.898;25.004;2022-11-15T12:20:57;96671.22;;;11.66
62932;BMP280;49037;41.898;25.004;2022-11-15T12:23:31;96666.94;;;11.63
62932;BMP280;49037;41.898;25.004;2022-11-15T12:26:04;96665.41;;;11.82
62932;BMP280;49037;41.898;25.004;2022-11-15T12:28:42;96656.53;;;11.94
62932;BMP280;49037;41.898;25.004;2022-11-15T12:31:37;96650.97;;;11.92
62932;BMP280;49037;41.898;25.004;2022-11-15T12:34:15;96652.38;;;11.79
62932;BMP280;49037;41.898;25.004;2022-11-15T12:36:54;96655.78;;;11.79
62932;BMP280;49037;41.898;25.004;2022-11-15T12:39:20;96652.63;;;11.95
62932;BMP280;49037;41.898;25.004;2022-11-15T12:47:01;96641.75;;;12.08
62932;BMP280;49037;41.898;25.004;2022-11-15T13:17:50;96609.25;;;12.04
62932;BMP280;49037;41.898;25.004;2022-11-15T13:22:52;96614.81;;;12.14
62932;BMP280;49037;41.898;25.004;2022-11-15T13:30:41;96574.97;;;11.81
62932;BMP280;49037;41.898;25.004;2022-11-15T13:33:23;96582.09;;;11.78
62932;BMP280;49037;41.898;25.004;2022-11-15T13:35:54;96579.91;;;11.69
62932;BMP280;49037;41.898;25.004;2022-11-15T13:38:29;96574.16;;;11.50
62932;BMP280;49037;41.898;25.004;2022-11-15T13:40:56;96579.75;;;11.60
62932;BMP280;49037;41.898;25.004;2022-11-15T13:46:26;96573.41;;;11.35
62932;BMP280;49037;41.898;25.004;2022-11-15T13:49:09;96569.41;;;11.21
62932;BMP280;49037;41.898;25.004;2022-11-15T13:51:42;96591.19;;;11.25
62932;BMP280;49037;41.898;25.004;2022-11-15T13:54:31;96582.53;;;11.40
62932;BMP280;49037;41.898;25.004;2022-11-15T13:57:03;96586.75;;;11.35
62932;BMP280;49037;41.898;25.004;2022-11-15T13:59:34;96574.50;;;11.40
62932;BMP280;49037;41.898;25.004;2022-11-15T14:02:03;96582.28;;;11.30
62932;BMP280;49037;41.898;25.004;2022-11-15T14:04:35;96585.41;;;11.14
62932;BMP280;49037;41.898;25.004;2022-11-15T14:07:03;96574.19;;;11.08
62932;BMP280;49037;41.898;25.004;2022-11-15T14:09:34;96574.91;;;11.08
62932;BMP280;49037;41.898;25.004;2022-11-15T14:12:01;96565.88;;;11.26
62932;BMP280;49037;41.898;25.004;2022-11-15T14:14:29;96565.78;;;11.11
62932;BMP280;49037;41.898;25.004;2022-11-15T14:16:58;96559.63;;;11.24
62932;BMP280;49037;41.898;25.004;2022-11-15T14:22:10;96559.53;;;11.44
62932;BMP280;49037;41.898;25.004;2022-11-15T14:24:36;96561.16;;;11.47
62932;BMP280;49037;41.898;25.004;2022-11-15T14:27:24;96549.13;;;11.33
62932;BMP280;49037;41.898;25.004;2022-11-15T14:29:50;96559.50;;;11.37
62932;BMP280;49037;41.898;25.004;2022-11-15T14:32:18;96559.53;;;11.44
62932;BMP280;49037;41.898;25.004;2022-11-15T14:34:45;96564.13;;;11.36
62932;BMP280;49037;41.898;25.004;2022-11-15T14:39:45;96559.97;;;11.20
62932;BMP280;49037;41.898;25.004;2022-11-15T14:42:11;96566.53;;;11.12
62932;BMP280;49037;41.898;25.004;2022-11-15T14:44:36;96551.59;;;11.16
62932;BMP280;49037;41.898;25.004;2022-11-15T14:47:02;96559.63;;;11.24
62932;BMP280;49037;41.898;25.004;2022-11-15T14:49:27;96561.44;;;11.29
62932;BMP280;49037;41.898;25.004;2022-11-15T14:51:53;96551.31;;;11.35
62932;BMP280;49037;41.898;25.004;2022-11-15T14:54:18;96555.41;;;11.43
62932;BMP280;49037;41.898;25.004;2022-11-15T14:56:43;96558.47;;;11.47
62932;BMP280;49037;41.898;25.004;2022-11-15T14:59:09;96552.41;;;11.47
62932;BMP280;49037;41.898;25.004;2022-11-15T15:01:34;96546.38;;;11.53
62932;BMP280;49037;41.898;25.004;2022-11-15T15:04:00;96546.00;;;11.57
62932;BMP280;49037;41.898;25.004;2022-11-15T15:06:26;96550.31;;;11.60
62932;BMP280;49037;41.898;25.004;2022-11-15T15:08:51;96543.88;;;11.63
62932;BMP280;49037;41.898;25.004;2022-11-15T15:11:21;96548.16;;;11.66
62932;BMP280;49037;41.898;25.004;2022-11-15T15:13:47;96553.00;;;11.60
62932;BMP280;49037;41.898;25.004;2022-11-15T15:16:12;96544.56;;;11.56
62932;BMP280;49037;41.898;25.004;2022-11-15T15:18:38;96539.41;;;11.50
62932;BMP280;49037;41.898;25.004;2022-11-15T15:21:21;96542.78;;;11.44
62932;BMP280;49037;41.898;25.004;2022-11-15T15:23:47;96536.59;;;11.13
62932;BMP280;49037;41.898;25.004;2022-11-15T15:26:13;96535.72;;;11.11
62932;BMP280;49037;41.898;25.004;2022-11-15T15:28:38;96543.28;;;10.92
62932;BMP280;49037;41.898;25.004;2022-11-15T15:31:04;96547.78;;;10.69
62932;BMP280;49037;41.898;25.004;2022-11-15T15:33:31;96543.09;;;10.62
62932;BMP280;49037;41.898;25.004;2022-11-15T15:35:56;96552.97;;;10.47
62932;BMP280;49037;41.898;25.004;2022-11-15T15:38:22;96557.06;;;10.48
62932;BMP280;49037;41.898;25.004;2022-11-15T15:40:47;96552.97;;;10.47
62932;BMP280;49037;41.898;25.004;2022-11-15T15:43:13;96554.06;;;10.52
62932;BMP280;49037;41.898;25.004;2022-11-15T15:45:40;96547.41;;;10.65
62932;BMP280;49037;41.898;25.004;2022-11-15T15:48:11;96549.91;;;10.71
62932;BMP280;49037;41.898;25.004;2022-11-15T15:50:37;96538.38;;;10.76
62932;BMP280;49037;41.898;25.004;2022-11-15T15:53:04;96546.44;;;10.83
62932;BMP280;49037;41.898;25.004;2022-11-15T15:55:30;96550.31;;;10.82
62932;BMP280;49037;41.898;25.004;2022-11-15T15:57:55;96542.69;;;10.86
62932;BMP280;49037;41.898;25.004;2022-11-15T16:00:23;96540.75;;;10.87
62932;BMP280;49037;41.898;25.004;2022-11-15T16:02:50;96540.59;;;10.92
62932;BMP280;49037;41.898;25.004;2022-11-15T16:05:16;96544.72;;;10.93
62932;BMP280;49037;41.898;25.004;2022-11-15T16:07:42;96549.38;;;11.00
62932;BMP280;49037;41.898;25.004;2022-11-15T16:10:28;96538.31;;;10.96
62932;BMP280;49037;41.898;25.004;2022-11-15T16:12:55;96546.91;;;11.02
62932;BMP280;49037;41.898;25.004;2022-11-15T16:15:23;96533.16;;;10.98
62932;BMP280;49037;41.898;25.004;2022-11-15T16:17:54;96545.50;;;11.08
62932;BMP280;49037;41.898;25.004;2022-11-15T16:23:09;96539.81;;;11.12